Flight Track Log - Related Links

Times and Time Zones

All times are in EDT time to prevent confusion due to time zone crossing. See the WAE5 flight status page for this flight to view local times or setup timezone preferences in your user account.

Time Position Orientation Groundspeed Altitude Reporting Facility
EDT Latitude Longitude Course Direction KTS MPH feet Rate Location/Type
Fri 08:34:56 AM 40.7625 -111.9744 299° West 117 135 4,700  Level Salt Lake Center
Fri 08:35:15 AM 40.7667 -111.9844 299° West 117 135 4,900 783 Climbing Salt Lake Center
Fri 08:36:05 AM 40.7819 -112.0136 305° West 116 133 5,600 919 Climbing Salt Lake Center
Fri 08:37:06 AM 40.8003 -112.0492 304° West 116 133 6,600 843 Climbing Salt Lake Center
Fri 08:38:06 AM 40.8208 -112.0806 311° West 115 132 7,300 744 Climbing Salt Lake Center
Fri 08:39:07 AM 40.8517 -112.0919 344° North 113 130 8,100 787 Climbing Salt Lake Center
Fri 08:40:08 AM 40.8822 -112.1019 346° North 114 131 8,900 744 Climbing Salt Lake Center
Fri 08:41:08 AM 40.9144 -112.1128 346° North 118 136 9,600 496 Climbing Salt Lake Center
Fri 08:42:09 AM 40.9511 -112.1222 349° North 134 154 9,900 149 Climbing Salt Lake Center
Fri 08:43:09 AM 40.9986 -112.1350 349° North 172 198 9,900  Level Salt Lake Center
Fri 08:44:10 AM 41.0481 -112.1472 349° North 179 206 9,900  Level Salt Lake Center
Fri 08:45:11 AM 41.0989 -112.1575 351° North 184 212 9,900  Level Salt Lake Center
Fri 08:46:11 AM 41.1486 -112.1703 349° North 182 209 9,900  Level Salt Lake Center
Fri 08:47:12 AM 41.1989 -112.1806 351° North 181 208 9,900  Level Salt Lake Center
Fri 08:48:12 AM 41.2475 -112.1936 349° North 178 205 9,900  Level Salt Lake Center
Fri 08:49:13 AM 41.2961 -112.2058 349° North 177 204 9,900  Level Salt Lake Center
Fri 08:50:14 AM 41.3453 -112.2183 349° North 179 206 9,900  Level Salt Lake Center
Fri 08:51:14 AM 41.3939 -112.2317 348° North 178 205 9,900  Level Salt Lake Center
Fri 08:52:15 AM 41.4433 -112.2431 350° North 181 208 9,900  Level Salt Lake Center
Fri 08:53:16 AM 41.4931 -112.2558 349° North 181 208 9,900  Level Salt Lake Center
Fri 08:54:16 AM 41.5419 -112.2689 349° North 179 206 9,900  Level Salt Lake Center
Fri 08:55:17 AM 41.5911 -112.2828 348° North 179 206 9,900  Level Salt Lake Center
Fri 08:56:18 AM 41.6386 -112.2942 350° North 177 204 9,900  Level Salt Lake Center
Fri 08:57:18 AM 41.6869 -112.3069 349° North 177 204 9,900  Level Salt Lake Center
Fri 08:58:19 AM 41.7456 -112.3258 346° North 178 205 9,900  Level Salt Lake Center
Fri 08:59:20 AM 41.7944 -112.3356 352° North 176 203 9,900  Level Salt Lake Center
Fri 09:00:21 AM 41.8439 -112.3481 349° North 178 205 9,900  Level Salt Lake Center
Fri 09:01:21 AM 41.8931 -112.3614 349° North 179 206 9,900  Level Salt Lake Center
Fri 09:02:22 AM 41.9431 -112.3739 349° North 181 208 9,900  Level Salt Lake Center
Fri 09:03:23 AM 41.9922 -112.3861 350° North 181 208 9,900  Level Salt Lake Center
Fri 09:04:23 AM 42.0425 -112.3992 349° North 182 209 9,900  Level Salt Lake Center
Fri 09:05:24 AM 42.0919 -112.4114 350° North 182 209 9,900 49 Level Salt Lake Center
Fri 09:06:25 AM 42.1425 -112.4244 349° North 183 211 10,000 49 Climbing Salt Lake Center
Fri 09:07:26 AM 42.1928 -112.4403 347° North 185 213 10,000  Level Salt Lake Center
Fri 09:08:26 AM 42.2431 -112.4542 348° North 185 213 10,000  Level Salt Lake Center
Fri 09:09:27 AM 42.2947 -112.4700 347° North 187 215 10,000  Level Salt Lake Center
Fri 09:10:28 AM 42.3450 -112.4825 350° North 186 214 10,000  Level Salt Lake Center
Fri 09:11:29 AM 42.3958 -112.4989 347° North 187 215 10,000  Level Salt Lake Center
Fri 09:12:30 AM 42.4472 -112.5139 348° North 188 216 10,000  Level Salt Lake Center
Fri 09:13:30 AM 42.4967 -112.5286 348° North 186 214 10,000  Level Salt Lake Center
Fri 09:14:31 AM 42.5581 -112.5461 348° North 186 214 10,000  Level Salt Lake Center
Fri 09:15:32 AM 42.6089 -112.5633 346° North 188 216 10,000 -492 Level Salt Lake Center
Fri 09:16:33 AM 42.6539 -112.5778 347° North 189 217 9,000 -984 Descending Salt Lake Center

Login

Don't have an account? Register now (free) for customized features, flight alerts, and more!